sensor_id;sensor_type;location;lat;lon;timestamp;temperature;humidity
36458;DHT22;22480;50.546;12.292;2022-10-19T00:01:33;11.70;99.90
36458;DHT22;22480;50.546;12.292;2022-10-19T00:04:01;11.80;99.90
36458;DHT22;22480;50.546;12.292;2022-10-19T00:06:30;11.80;99.90
36458;DHT22;22480;50.546;12.292;2022-10-19T00:08:58;11.80;99.90
36458;DHT22;22480;50.546;12.292;2022-10-19T00:11:25;11.60;99.90
36458;DHT22;22480;50.546;12.292;2022-10-19T00:13:53;11.50;99.90
36458;DHT22;22480;50.546;12.292;2022-10-19T00:16:19;11.40;99.90
36458;DHT22;22480;50.546;12.292;2022-10-19T00:18:45;11.30;99.90
36458;DHT22;22480;50.546;12.292;2022-10-19T00:21:15;11.10;99.90
36458;DHT22;22480;50.546;12.292;2022-10-19T00:23:42;11.00;99.90
36458;DHT22;22480;50.546;12.292;2022-10-19T00:26:08;10.90;99.90
36458;DHT22;22480;50.546;12.292;2022-10-19T00:28:35;10.90;99.90
36458;DHT22;22480;50.546;12.292;2022-10-19T00:31:06;11.00;99.90
36458;DHT22;22480;50.546;12.292;2022-10-19T00:33:32;11.00;99.90
36458;DHT22;22480;50.546;12.292;2022-10-19T00:35:58;10.80;99.90
36458;DHT22;22480;50.546;12.292;2022-10-19T00:38:24;10.70;99.90
36458;DHT22;22480;50.546;12.292;2022-10-19T00:40:50;10.70;99.90
36458;DHT22;22480;50.546;12.292;2022-10-19T00:43:22;10.80;99.90
36458;DHT22;22480;50.546;12.292;2022-10-19T00:45:49;10.90;99.90
36458;DHT22;22480;50.546;12.292;2022-10-19T00:48:20;10.90;99.90
36458;DHT22;22480;50.546;12.292;2022-10-19T00:50:48;10.80;99.90
36458;DHT22;22480;50.546;12.292;2022-10-19T00:53:15;10.80;99.90
36458;DHT22;22480;50.546;12.292;2022-10-19T00:55:42;10.80;99.90
36458;DHT22;22480;50.546;12.292;2022-10-19T00:58:08;10.70;99.90
36458;DHT22;22480;50.546;12.292;2022-10-19T01:00:34;10.80;99.90
36458;DHT22;22480;50.546;12.292;2022-10-19T01:03:00;10.70;99.90
36458;DHT22;22480;50.546;12.292;2022-10-19T01:05:27;10.70;99.90
36458;DHT22;22480;50.546;12.292;2022-10-19T01:07:55;10.80;99.90
36458;DHT22;22480;50.546;12.292;2022-10-19T01:11:02;10.80;99.90
36458;DHT22;22480;50.546;12.292;2022-10-19T01:16:15;10.90;99.90
36458;DHT22;22480;50.546;12.292;2022-10-19T01:21:36;11.00;99.90
36458;DHT22;22480;50.546;12.292;2022-10-19T01:27:12;10.80;99.90
36458;DHT22;22480;50.546;12.292;2022-10-19T01:29:59;10.90;99.90
36458;DHT22;22480;50.546;12.292;2022-10-19T01:32:30;10.90;99.90
36458;DHT22;22480;50.546;12.292;2022-10-19T01:35:10;10.90;99.90
36458;DHT22;22480;50.546;12.292;2022-10-19T01:37:47;10.90;99.90
36458;DHT22;22480;50.546;12.292;2022-10-19T01:43:16;10.90;99.90
36458;DHT22;22480;50.546;12.292;2022-10-19T01:46:09;10.90;99.90
36458;DHT22;22480;50.546;12.292;2022-10-19T01:48:39;10.70;99.90
36458;DHT22;22480;50.546;12.292;2022-10-19T01:51:16;10.60;99.90
36458;DHT22;22480;50.546;12.292;2022-10-19T01:53:46;10.40;99.90
36458;DHT22;22480;50.546;12.292;2022-10-19T01:56:15;10.30;99.90
36458;DHT22;22480;50.546;12.292;2022-10-19T01:58:43;10.10;99.90
36458;DHT22;22480;50.546;12.292;2022-10-19T02:01:11;9.90;99.90
36458;DHT22;22480;50.546;12.292;2022-10-19T02:03:40;9.90;99.90
36458;DHT22;22480;50.546;12.292;2022-10-19T02:06:08;9.80;99.90
36458;DHT22;22480;50.546;12.292;2022-10-19T02:08:45;9.70;99.90
36458;DHT22;22480;50.546;12.292;2022-10-19T02:11:11;9.70;99.90
36458;DHT22;22480;50.546;12.292;2022-10-19T02:13:38;9.70;99.90
36458;DHT22;22480;50.546;12.292;2022-10-19T02:16:11;9.70;99.90
36458;DHT22;22480;50.546;12.292;2022-10-19T02:18:43;9.60;99.90
36458;DHT22;22480;50.546;12.292;2022-10-19T02:21:10;9.50;99.90
36458;DHT22;22480;50.546;12.292;2022-10-19T02:23:36;9.50;99.90
36458;DHT22;22480;50.546;12.292;2022-10-19T02:26:02;9.40;99.90
36458;DHT22;22480;50.546;12.292;2022-10-19T02:28:29;9.40;99.90
36458;DHT22;22480;50.546;12.292;2022-10-19T02:30:56;9.30;99.90
36458;DHT22;22480;50.546;12.292;2022-10-19T02:33:22;9.30;99.90
36458;DHT22;22480;50.546;12.292;2022-10-19T02:35:48;9.30;99.90
36458;DHT22;22480;50.546;12.292;2022-10-19T02:38:16;9.40;99.90
36458;DHT22;22480;50.546;12.292;2022-10-19T02:40:46;9.30;99.90
36458;DHT22;22480;50.546;12.292;2022-10-19T02:43:14;9.40;99.90
36458;DHT22;22480;50.546;12.292;2022-10-19T02:46:06;9.30;99.90
36458;DHT22;22480;50.546;12.292;2022-10-19T02:48:33;9.30;99.90
36458;DHT22;22480;50.546;12.292;2022-10-19T02:51:01;9.30;99.90
36458;DHT22;22480;50.546;12.292;2022-10-19T02:53:27;9.30;99.90
36458;DHT22;22480;50.546;12.292;2022-10-19T02:55:53;9.20;99.90
36458;DHT22;22480;50.546;12.292;2022-10-19T02:58:19;9.20;99.90
36458;DHT22;22480;50.546;12.292;2022-10-19T03:00:44;9.20;99.90
36458;DHT22;22480;50.546;12.292;2022-10-19T03:03:10;9.30;99.90
36458;DHT22;22480;50.546;12.292;2022-10-19T03:05:36;9.30;99.90
36458;DHT22;22480;50.546;12.292;2022-10-19T03:08:02;9.30;99.90
36458;DHT22;22480;50.546;12.292;2022-10-19T03:10:28;9.20;99.90
36458;DHT22;22480;50.546;12.292;2022-10-19T03:12:56;9.10;99.90
36458;DHT22;22480;50.546;12.292;2022-10-19T03:15:22;9.00;99.90
36458;DHT22;22480;50.546;12.292;2022-10-19T03:17:52;9.00;99.90
36458;DHT22;22480;50.546;12.292;2022-10-19T03:20:18;8.90;99.90
36458;DHT22;22480;50.546;12.292;2022-10-19T03:22:44;8.90;99.90
36458;DHT22;22480;50.546;12.292;2022-10-19T03:25:09;8.80;99.90
36458;DHT22;22480;50.546;12.292;2022-10-19T03:27:35;8.70;99.90
36458;DHT22;22480;50.546;12.292;2022-10-19T03:30:01;8.50;99.90
36458;DHT22;22480;50.546;12.292;2022-10-19T03:32:26;8.50;99.90
36458;DHT22;22480;50.546;12.292;2022-10-19T03:34:52;8.30;99.90
36458;DHT22;22480;50.546;12.292;2022-10-19T03:37:18;8.30;99.90
36458;DHT22;22480;50.546;12.292;2022-10-19T03:39:43;8.20;99.90
36458;DHT22;22480;50.546;12.292;2022-10-19T03:42:09;8.10;99.90
36458;DHT22;22480;50.546;12.292;2022-10-19T03:44:35;7.90;99.90
36458;DHT22;22480;50.546;12.292;2022-10-19T03:47:00;7.70;99.90
36458;DHT22;22480;50.546;12.292;2022-10-19T03:49:26;7.60;99.90
36458;DHT22;22480;50.546;12.292;2022-10-19T03:51:52;7.60;99.90
36458;DHT22;22480;50.546;12.292;2022-10-19T03:54:18;7.70;99.90
36458;DHT22;22480;50.546;12.292;2022-10-19T03:56:43;7.90;99.90
36458;DHT22;22480;50.546;12.292;2022-10-19T03:59:12;8.00;99.90
36458;DHT22;22480;50.546;12.292;2022-10-19T04:01:40;8.30;99.90
36458;DHT22;22480;50.546;12.292;2022-10-19T04:04:09;8.30;99.90
36458;DHT22;22480;50.546;12.292;2022-10-19T04:06:39;8.20;99.90
36458;DHT22;22480;50.546;12.292;2022-10-19T04:09:06;8.20;99.90
36458;DHT22;22480;50.546;12.292;2022-10-19T04:11:33;8.20;99.90
36458;DHT22;22480;50.546;12.292;2022-10-19T04:14:00;8.30;99.90
36458;DHT22;22480;50.546;12.292;2022-10-19T04:16:28;8.20;99.90
36458;DHT22;22480;50.546;12.292;2022-10-19T04:18:54;8.20;99.90
36458;DHT22;22480;50.546;12.292;2022-10-19T04:21:25;8.20;99.90
36458;DHT22;22480;50.546;12.292;2022-10-19T04:23:55;8.30;99.90
36458;DHT22;22480;50.546;12.292;2022-10-19T04:26:21;8.30;99.90
36458;DHT22;22480;50.546;12.292;2022-10-19T04:28:47;8.50;99.90
36458;DHT22;22480;50.546;12.292;2022-10-19T04:31:13;8.60;99.90
36458;DHT22;22480;50.546;12.292;2022-10-19T04:33:39;8.70;99.90
36458;DHT22;22480;50.546;12.292;2022-10-19T04:36:08;8.80;99.90
36458;DHT22;22480;50.546;12.292;2022-10-19T04:38:34;8.80;99.90
36458;DHT22;22480;50.546;12.292;2022-10-19T04:41:20;8.80;99.90
36458;DHT22;22480;50.546;12.292;2022-10-19T04:43:47;8.80;99.90
36458;DHT22;22480;50.546;12.292;2022-10-19T04:46:15;8.80;99.90
36458;DHT22;22480;50.546;12.292;2022-10-19T04:48:42;8.80;99.90
36458;DHT22;22480;50.546;12.292;2022-10-19T04:51:09;8.80;99.90
36458;DHT22;22480;50.546;12.292;2022-10-19T04:53:36;8.80;99.90
36458;DHT22;22480;50.546;12.292;2022-10-19T04:56:07;8.90;99.90
36458;DHT22;22480;50.546;12.292;2022-10-19T04:58:33;8.90;99.90
36458;DHT22;22480;50.546;12.292;2022-10-19T05:01:05;8.90;99.90
36458;DHT22;22480;50.546;12.292;2022-10-19T05:03:31;8.90;99.90
36458;DHT22;22480;50.546;12.292;2022-10-19T05:05:58;8.90;99.90
36458;DHT22;22480;50.546;12.292;2022-10-19T05:08:24;8.90;99.90
36458;DHT22;22480;50.546;12.292;2022-10-19T05:10:49;9.00;99.90
36458;DHT22;22480;50.546;12.292;2022-10-19T05:13:15;8.90;99.90
36458;DHT22;22480;50.546;12.292;2022-10-19T05:15:41;8.90;99.90
36458;DHT22;22480;50.546;12.292;2022-10-19T05:18:06;8.90;99.90
36458;DHT22;22480;50.546;12.292;2022-10-19T05:20:32;8.80;99.90
36458;DHT22;22480;50.546;12.292;2022-10-19T05:22:58;8.80;99.90
36458;DHT22;22480;50.546;12.292;2022-10-19T05:25:23;8.80;99.90
36458;DHT22;22480;50.546;12.292;2022-10-19T05:27:51;8.80;99.90
36458;DHT22;22480;50.546;12.292;2022-10-19T05:30:18;8.80;99.90
36458;DHT22;22480;50.546;12.292;2022-10-19T05:32:43;8.80;99.90
36458;DHT22;22480;50.546;12.292;2022-10-19T05:35:09;8.80;99.90
36458;DHT22;22480;50.546;12.292;2022-10-19T05:37:35;8.80;99.90
36458;DHT22;22480;50.546;12.292;2022-10-19T05:40:00;8.80;99.90
36458;DHT22;22480;50.546;12.292;2022-10-19T05:42:27;8.80;99.90
36458;DHT22;22480;50.546;12.292;2022-10-19T05:44:52;8.90;99.90
36458;DHT22;22480;50.546;12.292;2022-10-19T05:47:18;8.80;99.90
36458;DHT22;22480;50.546;12.292;2022-10-19T05:49:44;8.80;99.90
36458;DHT22;22480;50.546;12.292;2022-10-19T05:52:09;8.80;99.90
36458;DHT22;22480;50.546;12.292;2022-10-19T05:54:36;8.80;99.90
36458;DHT22;22480;50.546;12.292;2022-10-19T05:57:01;8.90;99.90
36458;DHT22;22480;50.546;12.292;2022-10-19T05:59:27;8.90;99.90
36458;DHT22;22480;50.546;12.292;2022-10-19T06:01:53;8.90;99.90
36458;DHT22;22480;50.546;12.292;2022-10-19T06:04:19;8.90;99.90
36458;DHT22;22480;50.546;12.292;2022-10-19T06:06:44;8.90;99.90
36458;DHT22;22480;50.546;12.292;2022-10-19T06:09:11;8.90;99.90
36458;DHT22;22480;50.546;12.292;2022-10-19T06:11:39;8.90;99.90
36458;DHT22;22480;50.546;12.292;2022-10-19T06:14:12;8.90;99.90
36458;DHT22;22480;50.546;12.292;2022-10-19T06:16:38;8.90;99.90
36458;DHT22;22480;50.546;12.292;2022-10-19T06:19:04;8.90;99.90
36458;DHT22;22480;50.546;12.292;2022-10-19T06:21:31;8.90;99.90
36458;DHT22;22480;50.546;12.292;2022-10-19T06:24:00;8.90;99.90
36458;DHT22;22480;50.546;12.292;2022-10-19T06:26:27;8.90;99.90
36458;DHT22;22480;50.546;12.292;2022-10-19T06:28:55;8.90;99.90
36458;DHT22;22480;50.546;12.292;2022-10-19T06:31:22;8.90;99.90
36458;DHT22;22480;50.546;12.292;2022-10-19T06:33:48;9.00;99.90
36458;DHT22;22480;50.546;12.292;2022-10-19T06:36:18;9.00;99.90
36458;DHT22;22480;50.546;12.292;2022-10-19T06:38:45;9.00;99.90
36458;DHT22;22480;50.546;12.292;2022-10-19T06:41:11;9.00;99.90
36458;DHT22;22480;50.546;12.292;2022-10-19T06:43:37;9.10;99.90
36458;DHT22;22480;50.546;12.292;2022-10-19T06:46:08;9.20;99.90
36458;DHT22;22480;50.546;12.292;2022-10-19T06:48:34;9.30;99.90
36458;DHT22;22480;50.546;12.292;2022-10-19T06:51:02;9.30;99.90
36458;DHT22;22480;50.546;12.292;2022-10-19T06:53:28;9.30;99.90
36458;DHT22;22480;50.546;12.292;2022-10-19T06:56:02;9.40;99.90
36458;DHT22;22480;50.546;12.292;2022-10-19T06:58:28;9.30;99.90
36458;DHT22;22480;50.546;12.292;2022-10-19T07:00:59;9.30;99.90
36458;DHT22;22480;50.546;12.292;2022-10-19T07:03:25;9.40;99.90
36458;DHT22;22480;50.546;12.292;2022-10-19T07:05:56;9.40;99.90
36458;DHT22;22480;50.546;12.292;2022-10-19T07:08:23;9.50;99.90
36458;DHT22;22480;50.546;12.292;2022-10-19T07:10:56;9.50;99.90
36458;DHT22;22480;50.546;12.292;2022-10-19T07:13:22;9.60;99.90
36458;DHT22;22480;50.546;12.292;2022-10-19T07:15:48;9.70;99.90
36458;DHT22;22480;50.546;12.292;2022-10-19T07:18:14;9.70;99.90
36458;DHT22;22480;50.546;12.292;2022-10-19T07:20:40;9.90;99.90
36458;DHT22;22480;50.546;12.292;2022-10-19T07:23:06;9.90;99.90
36458;DHT22;22480;50.546;12.292;2022-10-19T07:25:32;10.10;99.90
36458;DHT22;22480;50.546;12.292;2022-10-19T07:27:58;10.20;99.90
36458;DHT22;22480;50.546;12.292;2022-10-19T07:30:24;10.30;99.90
36458;DHT22;22480;50.546;12.292;2022-10-19T07:32:49;10.40;99.90
36458;DHT22;22480;50.546;12.292;2022-10-19T07:35:15;10.40;99.90
36458;DHT22;22480;50.546;12.292;2022-10-19T07:37:41;10.40;99.90
36458;DHT22;22480;50.546;12.292;2022-10-19T07:40:07;10.30;99.90
36458;DHT22;22480;50.546;12.292;2022-10-19T07:42:33;10.30;99.90
36458;DHT22;22480;50.546;12.292;2022-10-19T07:45:02;10.40;99.90
36458;DHT22;22480;50.546;12.292;2022-10-19T07:47:28;10.50;99.90
36458;DHT22;22480;50.546;12.292;2022-10-19T07:49:54;10.50;99.90
36458;DHT22;22480;50.546;12.292;2022-10-19T07:52:19;10.50;99.90
36458;DHT22;22480;50.546;12.292;2022-10-19T07:54:45;10.50;99.90
36458;DHT22;22480;50.546;12.292;2022-10-19T07:57:14;10.70;99.90
36458;DHT22;22480;50.546;12.292;2022-10-19T07:59:40;10.70;99.90
36458;DHT22;22480;50.546;12.292;2022-10-19T08:02:13;10.60;99.90
36458;DHT22;22480;50.546;12.292;2022-10-19T08:04:40;10.50;99.90
36458;DHT22;22480;50.546;12.292;2022-10-19T08:07:06;10.60;99.90
36458;DHT22;22480;50.546;12.292;2022-10-19T08:09:32;10.70;99.90
36458;DHT22;22480;50.546;12.292;2022-10-19T08:11:57;10.70;99.90
36458;DHT22;22480;50.546;12.292;2022-10-19T08:14:23;10.70;99.90
36458;DHT22;22480;50.546;12.292;2022-10-19T08:16:49;10.80;99.90
36458;DHT22;22480;50.546;12.292;2022-10-19T08:19:15;11.00;99.90
36458;DHT22;22480;50.546;12.292;2022-10-19T08:21:44;11.00;99.90
36458;DHT22;22480;50.546;12.292;2022-10-19T08:24:11;11.10;99.90
36458;DHT22;22480;50.546;12.292;2022-10-19T08:26:38;11.30;99.90
36458;DHT22;22480;50.546;12.292;2022-10-19T08:29:09;11.40;99.90
36458;DHT22;22480;50.546;12.292;2022-10-19T08:31:35;11.50;99.90
36458;DHT22;22480;50.546;12.292;2022-10-19T08:34:01;11.50;99.90
36458;DHT22;22480;50.546;12.292;2022-10-19T08:36:27;11.50;99.90
36458;DHT22;22480;50.546;12.292;2022-10-19T08:38:56;11.70;99.90
36458;DHT22;22480;50.546;12.292;2022-10-19T08:41:34;11.60;99.90
36458;DHT22;22480;50.546;12.292;2022-10-19T08:47:26;11.50;99.90
36458;DHT22;22480;50.546;12.292;2022-10-19T08:49:58;11.40;99.90
36458;DHT22;22480;50.546;12.292;2022-10-19T08:52:33;11.30;99.90
36458;DHT22;22480;50.546;12.292;2022-10-19T08:55:02;11.40;99.90
36458;DHT22;22480;50.546;12.292;2022-10-19T08:57:50;11.60;99.90
36458;DHT22;22480;50.546;12.292;2022-10-19T09:08:16;12.30;99.90
36458;DHT22;22480;50.546;12.292;2022-10-19T09:10:45;12.30;99.90
36458;DHT22;22480;50.546;12.292;2022-10-19T09:13:38;12.30;99.90
36458;DHT22;22480;50.546;12.292;2022-10-19T09:16:07;12.20;99.90
36458;DHT22;22480;50.546;12.292;2022-10-19T09:18:35;12.00;99.90
36458;DHT22;22480;50.546;12.292;2022-10-19T09:21:15;12.50;99.90
36458;DHT22;22480;50.546;12.292;2022-10-19T09:24:05;12.90;99.90
36458;DHT22;22480;50.546;12.292;2022-10-19T09:26:36;12.90;99.90
36458;DHT22;22480;50.546;12.292;2022-10-19T09:31:58;13.30;99.90
36458;DHT22;22480;50.546;12.292;2022-10-19T09:34:31;13.70;99.90
36458;DHT22;22480;50.546;12.292;2022-10-19T09:36:59;14.50;99.90
36458;DHT22;22480;50.546;12.292;2022-10-19T09:39:27;14.80;99.90
36458;DHT22;22480;50.546;12.292;2022-10-19T09:41:56;14.70;99.90
36458;DHT22;22480;50.546;12.292;2022-10-19T09:44:23;14.30;99.90
36458;DHT22;22480;50.546;12.292;2022-10-19T09:47:23;14.50;99.90
36458;DHT22;22480;50.546;12.292;2022-10-19T09:50:06;14.80;99.90
36458;DHT22;22480;50.546;12.292;2022-10-19T09:55:20;15.50;99.90
36458;DHT22;22480;50.546;12.292;2022-10-19T09:57:50;14.60;95.50
36458;DHT22;22480;50.546;12.292;2022-10-19T10:00:25;13.80;98.00
36458;DHT22;22480;50.546;12.292;2022-10-19T10:02:56;13.20;99.90
36458;DHT22;22480;50.546;12.292;2022-10-19T10:05:30;12.90;99.90
36458;DHT22;22480;50.546;12.292;2022-10-19T10:07:57;12.60;99.90
36458;DHT22;22480;50.546;12.292;2022-10-19T10:10:27;12.40;99.90
36458;DHT22;22480;50.546;12.292;2022-10-19T10:12:54;13.20;99.90
36458;DHT22;22480;50.546;12.292;2022-10-19T10:15:26;14.90;99.90
36458;DHT22;22480;50.546;12.292;2022-10-19T10:17:52;17.10;99.90
36458;DHT22;22480;50.546;12.292;2022-10-19T10:20:28;17.40;88.40
36458;DHT22;22480;50.546;12.292;2022-10-19T10:23:03;16.50;91.60
36458;DHT22;22480;50.546;12.292;2022-10-19T10:25:33;15.90;91.40
36458;DHT22;22480;50.546;12.292;2022-10-19T10:28:23;15.60;94.40
36458;DHT22;22480;50.546;12.292;2022-10-19T10:30:54;14.80;94.40
36458;DHT22;22480;50.546;12.292;2022-10-19T10:33:25;14.60;99.00
36458;DHT22;22480;50.546;12.292;2022-10-19T10:35:55;14.90;98.80
36458;DHT22;22480;50.546;12.292;2022-10-19T10:38:27;15.70;96.10
36458;DHT22;22480;50.546;12.292;2022-10-19T10:41:15;16.50;94.50
36458;DHT22;22480;50.546;12.292;2022-10-19T10:43:54;16.50;94.10
36458;DHT22;22480;50.546;12.292;2022-10-19T10:46:24;16.40;93.60
36458;DHT22;22480;50.546;12.292;2022-10-19T10:49:00;17.30;95.30
36458;DHT22;22480;50.546;12.292;2022-10-19T10:51:37;18.40;91.60
36458;DHT22;22480;50.546;12.292;2022-10-19T10:54:20;18.30;83.60
36458;DHT22;22480;50.546;12.292;2022-10-19T10:59:55;17.80;85.40
36458;DHT22;22480;50.546;12.292;2022-10-19T11:04:56;16.20;90.60
36458;DHT22;22480;50.546;12.292;2022-10-19T11:07:25;15.70;91.40
36458;DHT22;22480;50.546;12.292;2022-10-19T11:09:59;15.00;91.70
36458;DHT22;22480;50.546;12.292;2022-10-19T11:12:37;14.40;91.50
36458;DHT22;22480;50.546;12.292;2022-10-19T11:15:23;14.10;93.90
36458;DHT22;22480;50.546;12.292;2022-10-19T11:18:29;13.90;94.40
36458;DHT22;22480;50.546;12.292;2022-10-19T11:21:07;13.80;95.10
36458;DHT22;22480;50.546;12.292;2022-10-19T11:26:14;13.50;97.20
36458;DHT22;22480;50.546;12.292;2022-10-19T11:31:53;14.20;99.00
36458;DHT22;22480;50.546;12.292;2022-10-19T11:37:24;14.90;92.70
36458;DHT22;22480;50.546;12.292;2022-10-19T11:51:05;15.90;92.50
36458;DHT22;22480;50.546;12.292;2022-10-19T11:53:49;15.60;92.30
36458;DHT22;22480;50.546;12.292;2022-10-19T11:56:35;15.30;92.50
36458;DHT22;22480;50.546;12.292;2022-10-19T11:59:24;15.10;93.00
36458;DHT22;22480;50.546;12.292;2022-10-19T12:12:44;14.40;94.20
36458;DHT22;22480;50.546;12.292;2022-10-19T12:17:52;14.40;92.10
36458;DHT22;22480;50.546;12.292;2022-10-19T12:20:24;14.50;93.60
36458;DHT22;22480;50.546;12.292;2022-10-19T12:22:51;14.40;92.30
36458;DHT22;22480;50.546;12.292;2022-10-19T12:25:18;14.50;91.40
36458;DHT22;22480;50.546;12.292;2022-10-19T12:27:45;14.60;93.00
36458;DHT22;22480;50.546;12.292;2022-10-19T12:30:14;15.00;92.90
36458;DHT22;22480;50.546;12.292;2022-10-19T12:38:34;14.80;93.40
36458;DHT22;22480;50.546;12.292;2022-10-19T12:41:12;15.00;92.40
36458;DHT22;22480;50.546;12.292;2022-10-19T12:44:00;14.60;93.00
36458;DHT22;22480;50.546;12.292;2022-10-19T12:46:43;14.40;92.70
36458;DHT22;22480;50.546;12.292;2022-10-19T12:51:53;13.50;92.00
36458;DHT22;22480;50.546;12.292;2022-10-19T12:54:26;13.30;95.50
36458;DHT22;22480;50.546;12.292;2022-10-19T12:56:54;13.20;95.90
36458;DHT22;22480;50.546;12.292;2022-10-19T12:59:29;13.40;96.70
36458;DHT22;22480;50.546;12.292;2022-10-19T13:01:56;13.70;97.20
36458;DHT22;22480;50.546;12.292;2022-10-19T13:04:31;15.00;98.20
36458;DHT22;22480;50.546;12.292;2022-10-19T13:06:58;16.40;94.70
36458;DHT22;22480;50.546;12.292;2022-10-19T13:09:40;17.70;85.30
36458;DHT22;22480;50.546;12.292;2022-10-19T13:22:41;22.20;60.60
36458;DHT22;22480;50.546;12.292;2022-10-19T13:27:41;22.00;61.60
36458;DHT22;22480;50.546;12.292;2022-10-19T13:44:00;18.00;72.40
36458;DHT22;22480;50.546;12.292;2022-10-19T13:55:09;16.80;72.00
36458;DHT22;22480;50.546;12.292;2022-10-19T14:00:25;15.00;80.40
36458;DHT22;22480;50.546;12.292;2022-10-19T14:05:53;14.40;88.30
36458;DHT22;22480;50.546;12.292;2022-10-19T14:08:47;14.00;89.60
36458;DHT22;22480;50.546;12.292;2022-10-19T14:11:34;13.80;90.20
36458;DHT22;22480;50.546;12.292;2022-10-19T14:16:56;13.70;94.20
36458;DHT22;22480;50.546;12.292;2022-10-19T14:19:27;13.50;94.40
36458;DHT22;22480;50.546;12.292;2022-10-19T14:21:56;13.30;95.30
36458;DHT22;22480;50.546;12.292;2022-10-19T14:24:34;13.10;94.30
36458;DHT22;22480;50.546;12.292;2022-10-19T14:27:05;13.10;94.40
36458;DHT22;22480;50.546;12.292;2022-10-19T14:29:42;13.00;93.50
36458;DHT22;22480;50.546;12.292;2022-10-19T14:32:09;12.90;95.10
36458;DHT22;22480;50.546;12.292;2022-10-19T14:34:45;13.00;95.20
36458;DHT22;22480;50.546;12.292;2022-10-19T14:37:25;13.00;96.50
36458;DHT22;22480;50.546;12.292;2022-10-19T14:40:01;13.10;99.90
36458;DHT22;22480;50.546;12.292;2022-10-19T14:42:44;13.20;98.10
36458;DHT22;22480;50.546;12.292;2022-10-19T14:45:18;13.10;97.70
36458;DHT22;22480;50.546;12.292;2022-10-19T14:47:58;13.00;98.10
36458;DHT22;22480;50.546;12.292;2022-10-19T14:53:39;12.50;99.90
36458;DHT22;22480;50.546;12.292;2022-10-19T14:58:37;12.00;99.50
36458;DHT22;22480;50.546;12.292;2022-10-19T15:01:04;11.90;99.90
36458;DHT22;22480;50.546;12.292;2022-10-19T15:03:30;11.60;99.90
36458;DHT22;22480;50.546;12.292;2022-10-19T15:06:04;11.50;99.90
36458;DHT22;22480;50.546;12.292;2022-10-19T15:10:59;11.30;99.90
36458;DHT22;22480;50.546;12.292;2022-10-19T15:13:31;11.30;99.90
36458;DHT22;22480;50.546;12.292;2022-10-19T15:15:58;11.20;99.90
36458;DHT22;22480;50.546;12.292;2022-10-19T15:18:26;11.20;99.90
36458;DHT22;22480;50.546;12.292;2022-10-19T15:21:13;11.10;99.90
36458;DHT22;22480;50.546;12.292;2022-10-19T15:23:50;10.80;99.90
36458;DHT22;22480;50.546;12.292;2022-10-19T15:28:51;10.60;99.90
36458;DHT22;22480;50.546;12.292;2022-10-19T15:31:24;10.60;99.90
36458;DHT22;22480;50.546;12.292;2022-10-19T15:33:52;10.50;99.90
36458;DHT22;22480;50.546;12.292;2022-10-19T15:36:20;10.30;99.90
36458;DHT22;22480;50.546;12.292;2022-10-19T15:38:48;10.10;99.90
36458;DHT22;22480;50.546;12.292;2022-10-19T15:41:25;10.30;99.90
36458;DHT22;22480;50.546;12.292;2022-10-19T15:43:52;10.30;99.90
36458;DHT22;22480;50.546;12.292;2022-10-19T15:46:22;10.10;99.90
36458;DHT22;22480;50.546;12.292;2022-10-19T15:48:50;9.80;99.90
36458;DHT22;22480;50.546;12.292;2022-10-19T15:56:17;8.70;99.90
36458;DHT22;22480;50.546;12.292;2022-10-19T15:58:42;8.40;99.90
36458;DHT22;22480;50.546;12.292;2022-10-19T16:01:16;8.10;99.90
36458;DHT22;22480;50.546;12.292;2022-10-19T16:03:42;7.80;99.90
36458;DHT22;22480;50.546;12.292;2022-10-19T16:06:07;7.60;99.90
36458;DHT22;22480;50.546;12.292;2022-10-19T16:08:33;7.40;99.90
36458;DHT22;22480;50.546;12.292;2022-10-19T16:10:59;7.20;99.90
36458;DHT22;22480;50.546;12.292;2022-10-19T16:13:25;7.10;99.90
36458;DHT22;22480;50.546;12.292;2022-10-19T16:16:02;6.90;99.90
36458;DHT22;22480;50.546;12.292;2022-10-19T16:18:28;6.70;99.90
36458;DHT22;22480;50.546;12.292;2022-10-19T16:20:54;6.70;99.90
36458;DHT22;22480;50.546;12.292;2022-10-19T16:23:20;6.60;99.90
36458;DHT22;22480;50.546;12.292;2022-10-19T16:25:45;6.40;99.90
36458;DHT22;22480;50.546;12.292;2022-10-19T16:28:11;6.30;99.90
36458;DHT22;22480;50.546;12.292;2022-10-19T16:30:37;6.10;99.90
36458;DHT22;22480;50.546;12.292;2022-10-19T16:33:03;6.10;99.90
36458;DHT22;22480;50.546;12.292;2022-10-19T16:35:28;6.00;99.90
36458;DHT22;22480;50.546;12.292;2022-10-19T16:37:54;5.90;99.90
36458;DHT22;22480;50.546;12.292;2022-10-19T16:40:20;5.80;99.90
36458;DHT22;22480;50.546;12.292;2022-10-19T16:42:46;5.60;99.90
36458;DHT22;22480;50.546;12.292;2022-10-19T16:45:11;5.50;99.90
36458;DHT22;22480;50.546;12.292;2022-10-19T16:47:37;5.50;99.90
36458;DHT22;22480;50.546;12.292;2022-10-19T16:50:04;5.50;99.90
36458;DHT22;22480;50.546;12.292;2022-10-19T16:52:30;5.60;99.90
36458;DHT22;22480;50.546;12.292;2022-10-19T16:54:58;5.70;99.90
36458;DHT22;22480;50.546;12.292;2022-10-19T16:57:24;5.70;99.90
36458;DHT22;22480;50.546;12.292;2022-10-19T16:59:50;5.60;99.90
36458;DHT22;22480;50.546;12.292;2022-10-19T17:02:18;5.70;99.90
36458;DHT22;22480;50.546;12.292;2022-10-19T17:04:44;5.70;99.90
36458;DHT22;22480;50.546;12.292;2022-10-19T17:07:10;5.60;99.90
36458;DHT22;22480;50.546;12.292;2022-10-19T17:09:37;5.50;99.90
36458;DHT22;22480;50.546;12.292;2022-10-19T17:12:04;5.50;99.90
36458;DHT22;22480;50.546;12.292;2022-10-19T17:14:30;5.50;99.90
36458;DHT22;22480;50.546;12.292;2022-10-19T17:16:56;5.60;99.90
36458;DHT22;22480;50.546;12.292;2022-10-19T17:19:21;5.50;99.90
36458;DHT22;22480;50.546;12.292;2022-10-19T17:21:47;5.50;99.90
36458;DHT22;22480;50.546;12.292;2022-10-19T17:24:16;5.40;99.90
36458;DHT22;22480;50.546;12.292;2022-10-19T17:26:43;5.40;99.90
36458;DHT22;22480;50.546;12.292;2022-10-19T17:29:12;5.40;99.90
36458;DHT22;22480;50.546;12.292;2022-10-19T17:31:39;5.50;99.90
36458;DHT22;22480;50.546;12.292;2022-10-19T17:34:06;5.50;99.90
36458;DHT22;22480;50.546;12.292;2022-10-19T17:36:38;5.40;99.90
36458;DHT22;22480;50.546;12.292;2022-10-19T17:39:07;5.40;99.90
36458;DHT22;22480;50.546;12.292;2022-10-19T17:41:33;5.40;99.90
36458;DHT22;22480;50.546;12.292;2022-10-19T17:43:59;5.40;99.90
36458;DHT22;22480;50.546;12.292;2022-10-19T17:46:28;5.30;99.90
36458;DHT22;22480;50.546;12.292;2022-10-19T17:48:56;5.20;99.90
36458;DHT22;22480;50.546;12.292;2022-10-19T17:51:24;5.20;99.90
36458;DHT22;22480;50.546;12.292;2022-10-19T17:53:54;5.00;99.90